createdAt,value
2023-04-26T00:02:19.795Z,23.30
2023-04-26T00:05:09.764Z,23.20
2023-04-26T00:07:58.663Z,28.90
2023-04-26T00:10:46.366Z,27.30
2023-04-26T00:13:34.057Z,28.40
2023-04-26T00:16:21.862Z,28.30
2023-04-26T00:19:12.989Z,26.13
2023-04-26T00:22:01.166Z,22.63
2023-04-26T00:24:48.927Z,23.88
2023-04-26T00:27:36.680Z,25.02
2023-04-26T00:30:24.881Z,27.50
2023-04-26T00:33:12.425Z,26.20
2023-04-26T00:36:01.542Z,26.48
2023-04-26T00:38:49.116Z,28.67
2023-04-26T00:41:36.838Z,32.80
2023-04-26T00:44:25.200Z,22.63
2023-04-26T00:47:14.102Z,22.00
2023-04-26T00:50:03.854Z,25.67
2023-04-26T00:52:53.813Z,23.85
2023-04-26T00:55:42.157Z,21.02
2023-04-26T00:58:30.421Z,20.52
2023-04-26T01:01:18.239Z,16.42
2023-04-26T01:04:06.531Z,22.27
2023-04-26T01:06:56.764Z,20.67
2023-04-26T01:09:46.385Z,18.73
2023-04-26T01:12:34.568Z,20.83
2023-04-26T01:15:22.920Z,17.15
2023-04-26T01:18:10.286Z,20.48
2023-04-26T01:21:00.061Z,16.70
2023-04-26T01:23:51.584Z,15.00
2023-04-26T01:26:46.089Z,18.02
2023-04-26T01:29:35.408Z,13.93
2023-04-26T01:32:25.489Z,17.02
2023-04-26T01:35:13.291Z,21.45
2023-04-26T01:38:01.157Z,17.17
2023-04-26T01:40:50.217Z,20.02
2023-04-26T01:43:37.946Z,17.95
2023-04-26T01:46:26.176Z,22.85
2023-04-26T01:49:13.770Z,20.02
2023-04-26T01:52:03.044Z,19.10
2023-04-26T01:54:51.549Z,18.52
2023-04-26T01:57:42.390Z,23.83
2023-04-26T02:00:31.418Z,17.60
2023-04-26T02:03:19.004Z,17.35
2023-04-26T02:06:07.679Z,17.98
2023-04-26T02:08:56.140Z,18.30
2023-04-26T02:11:44.258Z,15.93
2023-04-26T02:14:34.127Z,19.55
2023-04-26T02:17:23.143Z,18.80
2023-04-26T02:20:11.872Z,21.95
2023-04-26T02:22:59.745Z,19.42
2023-04-26T02:25:48.915Z,19.08
2023-04-26T02:28:38.231Z,18.52
2023-04-26T02:31:28.380Z,17.85
2023-04-26T02:34:16.892Z,16.90
2023-04-26T02:37:04.889Z,14.65
2023-04-26T02:39:54.288Z,13.05
2023-04-26T02:42:42.674Z,16.73
2023-04-26T02:45:30.610Z,17.30
2023-04-26T02:48:19.647Z,11.52
2023-04-26T02:51:07.933Z,15.82
2023-04-26T02:53:56.179Z,17.00
2023-04-26T02:56:43.957Z,12.73
2023-04-26T02:59:31.708Z,16.40
2023-04-26T03:02:22.471Z,15.90
2023-04-26T03:05:12.042Z,16.92
2023-04-26T03:08:00.139Z,17.77
2023-04-26T03:10:48.325Z,16.88
2023-04-26T03:13:36.024Z,13.88
2023-04-26T03:16:25.614Z,17.98
2023-04-26T03:19:13.983Z,20.13
2023-04-26T03:22:04.159Z,16.90
2023-04-26T03:24:51.990Z,19.05
2023-04-26T03:27:40.407Z,18.83
2023-04-26T03:30:28.308Z,16.15
2023-04-26T03:33:16.981Z,17.33
2023-04-26T03:36:05.356Z,17.02
2023-04-26T03:38:54.667Z,20.65
2023-04-26T03:41:42.324Z,18.50
2023-04-26T03:44:33.642Z,17.83
2023-04-26T03:47:21.728Z,19.25
2023-04-26T03:50:12.213Z,23.30
2023-04-26T03:53:00.308Z,17.33
2023-04-26T03:55:49.841Z,18.90
2023-04-26T03:58:37.571Z,18.40
2023-04-26T04:01:26.274Z,17.38
2023-04-26T04:04:14.754Z,17.75
2023-04-26T04:07:03.435Z,17.25
2023-04-26T04:09:51.630Z,17.15
2023-04-26T04:12:42.700Z,20.63
2023-04-26T04:15:30.728Z,15.43
2023-04-26T04:18:19.209Z,15.95
2023-04-26T04:21:07.254Z,18.25
2023-04-26T04:23:55.384Z,22.15
2023-04-26T04:26:43.330Z,19.75
2023-04-26T04:29:32.990Z,18.55
2023-04-26T04:32:21.657Z,17.45
2023-04-26T04:35:10.011Z,18.88
2023-04-26T04:37:58.212Z,22.58
2023-04-26T04:40:47.788Z,19.02
2023-04-26T04:43:36.425Z,19.73
2023-04-26T04:46:26.576Z,21.55
2023-04-26T04:49:15.193Z,18.58
2023-04-26T04:52:03.455Z,22.00
2023-04-26T04:54:51.011Z,24.05
2023-04-26T04:57:42.936Z,17.98
2023-04-26T05:00:31.440Z,19.83
2023-04-26T05:03:40.497Z,23.10
2023-04-26T05:06:29.656Z,24.00
2023-04-26T05:09:17.780Z,20.27
2023-04-26T05:12:05.873Z,19.52
2023-04-26T05:14:54.150Z,22.13
2023-04-26T05:17:45.099Z,21.55
2023-04-26T05:20:41.904Z,28.25
2023-04-26T05:23:35.501Z,20.80
2023-04-26T05:26:23.261Z,18.67
2023-04-26T05:29:31.613Z,20.27
2023-04-26T05:32:30.045Z,24.05
2023-04-26T05:35:33.324Z,21.67
2023-04-26T05:38:24.101Z,18.88
2023-04-26T05:41:11.977Z,18.73
2023-04-26T05:43:59.737Z,21.50
2023-04-26T05:46:50.609Z,17.45
2023-04-26T05:49:40.949Z,21.02
2023-04-26T05:52:34.634Z,20.75
2023-04-26T05:55:27.352Z,19.63
2023-04-26T05:58:15.591Z,15.63
2023-04-26T06:01:04.021Z,18.90
2023-04-26T06:03:54.322Z,19.40
2023-04-26T06:06:50.355Z,22.52
2023-04-26T06:12:28.217Z,21.30
2023-04-26T06:15:23.745Z,18.40
2023-04-26T06:18:11.755Z,16.33
2023-04-26T06:21:03.864Z,17.55
2023-04-26T06:23:52.108Z,21.05
2023-04-26T06:26:41.861Z,20.27
2023-04-26T06:29:35.042Z,20.17
2023-04-26T06:35:14.658Z,19.88
2023-04-26T06:38:05.112Z,18.35
2023-04-26T06:40:58.096Z,16.58
2023-04-26T06:46:50.029Z,15.32
2023-04-26T06:49:40.466Z,13.63
2023-04-26T06:52:30.262Z,13.50
2023-04-26T06:55:18.077Z,15.25
2023-04-26T06:58:08.309Z,16.50
2023-04-26T07:01:01.621Z,14.15
2023-04-26T07:03:56.194Z,13.98
2023-04-26T07:06:44.697Z,12.98
2023-04-26T07:09:35.450Z,12.88
2023-04-26T07:12:27.854Z,9.82
2023-04-26T07:15:22.345Z,14.18
2023-04-26T07:18:15.825Z,11.98
2023-04-26T07:21:12.510Z,17.42
2023-04-26T07:24:07.624Z,12.00
2023-04-26T07:27:02.966Z,9.93
2023-04-26T07:29:54.965Z,12.30
2023-04-26T07:32:43.360Z,12.48
2023-04-26T07:35:31.203Z,10.68
2023-04-26T07:38:20.234Z,15.30
2023-04-26T07:41:08.098Z,13.38
2023-04-26T07:43:56.435Z,14.18
2023-04-26T07:46:44.038Z,11.32
2023-04-26T07:49:31.938Z,15.25
2023-04-26T07:52:19.385Z,10.48
2023-04-26T07:55:10.107Z,11.95
2023-04-26T07:57:58.268Z,15.93
2023-04-26T08:00:46.331Z,15.43
2023-04-26T08:03:34.416Z,10.77
2023-04-26T08:06:22.655Z,14.93
2023-04-26T08:09:11.408Z,11.00
2023-04-26T08:12:00.883Z,13.00
2023-04-26T08:14:48.459Z,14.98
2023-04-26T08:17:43.718Z,14.00
2023-04-26T08:20:39.480Z,11.85
2023-04-26T08:23:29.686Z,16.67
2023-04-26T08:26:22.856Z,14.73
2023-04-26T08:29:16.216Z,10.80
2023-04-26T08:32:12.521Z,11.95
2023-04-26T08:35:04.678Z,13.77
2023-04-26T08:38:09.729Z,11.88
2023-04-26T08:41:05.116Z,12.60
2023-04-26T08:43:59.031Z,13.30
2023-04-26T08:47:02.424Z,11.73
2023-04-26T08:49:54.280Z,9.35
2023-04-26T08:52:42.315Z,13.00
2023-04-26T08:55:30.748Z,13.20
2023-04-26T08:58:18.852Z,12.93
2023-04-26T09:01:07.745Z,9.45
2023-04-26T09:03:58.173Z,12.35
2023-04-26T09:06:45.913Z,9.38
2023-04-26T09:09:37.789Z,9.55
2023-04-26T09:12:25.789Z,8.70
2023-04-26T09:15:13.113Z,8.27
2023-04-26T09:18:25.190Z,8.82
2023-04-26T09:21:17.959Z,8.40
2023-04-26T09:24:06.944Z,11.73
2023-04-26T09:27:03.135Z,7.05
2023-04-26T09:30:05.990Z,10.93
2023-04-26T09:32:54.935Z,8.18
2023-04-26T09:35:44.175Z,8.85
2023-04-26T09:38:45.757Z,8.85
2023-04-26T09:41:46.022Z,9.48
2023-04-26T09:44:33.670Z,15.05
2023-04-26T09:47:24.072Z,10.60
2023-04-26T09:50:11.269Z,7.85
2023-04-26T09:52:59.003Z,10.75
2023-04-26T09:55:49.941Z,8.23
2023-04-26T09:58:38.442Z,10.77
2023-04-26T10:01:26.791Z,9.00
2023-04-26T10:04:14.550Z,6.47
2023-04-26T10:07:02.608Z,7.50
2023-04-26T10:09:51.045Z,10.98
2023-04-26T10:12:40.159Z,7.28
2023-04-26T10:15:28.618Z,6.88
2023-04-26T10:18:24.761Z,4.97
2023-04-26T10:21:18.128Z,5.97
2023-04-26T10:24:08.537Z,9.20
2023-04-26T10:26:58.323Z,7.25
2023-04-26T10:30:16.001Z,7.55
2023-04-26T10:33:03.376Z,7.03
2023-04-26T10:36:09.061Z,6.30
2023-04-26T10:39:28.561Z,6.47
2023-04-26T10:42:32.738Z,6.25
2023-04-26T10:45:35.969Z,7.70
2023-04-26T10:51:15.159Z,9.32
2023-04-26T10:54:04.304Z,7.75
2023-04-26T10:56:58.375Z,9.00
2023-04-26T11:00:21.419Z,7.22
2023-04-26T11:03:13.167Z,4.60
2023-04-26T11:06:02.064Z,5.10
2023-04-26T11:08:52.926Z,6.82
2023-04-26T11:11:54.378Z,6.10
2023-04-26T11:14:47.099Z,4.80
2023-04-26T11:17:39.396Z,4.88
2023-04-26T11:20:37.203Z,5.70
2023-04-26T11:23:26.256Z,3.88
2023-04-26T11:26:18.992Z,8.65
2023-04-26T11:29:11.052Z,6.32
2023-04-26T11:32:00.004Z,4.63
2023-04-26T11:34:51.024Z,7.35
2023-04-26T11:37:40.199Z,7.10
2023-04-26T11:40:32.030Z,6.50
2023-04-26T11:43:21.028Z,6.22
2023-04-26T11:46:11.225Z,8.10
2023-04-26T11:48:59.876Z,8.80
2023-04-26T11:51:51.269Z,4.15
2023-04-26T11:54:40.738Z,5.97
2023-04-26T11:57:33.590Z,6.47
2023-04-26T12:00:22.855Z,6.10
2023-04-26T12:03:11.722Z,5.18
2023-04-26T12:05:59.946Z,4.82
2023-04-26T12:08:53.268Z,5.43
2023-04-26T12:14:34.719Z,4.25
2023-04-26T12:17:22.914Z,3.83
2023-04-26T12:20:14.016Z,5.65
2023-04-26T12:23:05.545Z,11.43
2023-04-26T12:25:57.624Z,9.82
2023-04-26T12:28:47.088Z,10.18
2023-04-26T12:31:37.243Z,9.85
2023-04-26T12:34:26.692Z,6.55
2023-04-26T12:37:14.753Z,8.63
2023-04-26T12:40:02.898Z,5.88
2023-04-26T12:42:52.899Z,5.65
2023-04-26T12:45:42.144Z,5.95
2023-04-26T12:48:40.538Z,7.75
2023-04-26T12:51:36.895Z,9.95
2023-04-26T12:54:31.237Z,6.25
2023-04-26T12:57:46.087Z,6.35
2023-04-26T13:00:34.526Z,7.88
2023-04-26T13:03:22.834Z,6.47
2023-04-26T13:06:10.626Z,6.95
2023-04-26T13:08:57.980Z,7.32
2023-04-26T13:11:45.171Z,7.05
2023-04-26T13:14:32.350Z,6.55
2023-04-26T13:17:19.615Z,5.85
2023-04-26T13:20:09.549Z,5.90
2023-04-26T13:22:57.126Z,8.88
2023-04-26T13:25:44.352Z,6.70
2023-04-26T13:28:31.748Z,8.93
2023-04-26T13:31:19.458Z,6.88
2023-04-26T13:34:07.250Z,4.78
2023-04-26T13:36:57.929Z,5.15
2023-04-26T13:39:48.324Z,4.63
2023-04-26T13:42:39.649Z,4.45
2023-04-26T13:45:36.040Z,4.85
2023-04-26T13:48:24.314Z,7.70
2023-04-26T13:51:12.285Z,6.10
2023-04-26T13:54:01.835Z,7.03
2023-04-26T13:56:50.086Z,6.25
2023-04-26T13:59:38.321Z,6.75
2023-04-26T14:02:27.086Z,8.15
2023-04-26T14:05:15.506Z,6.55
2023-04-26T14:08:04.321Z,5.90
2023-04-26T14:10:53.981Z,5.32
2023-04-26T14:13:41.887Z,6.70
2023-04-26T14:16:29.683Z,4.60
2023-04-26T14:19:18.733Z,6.80
2023-04-26T14:22:07.776Z,6.28
2023-04-26T14:24:56.157Z,5.05
2023-04-26T14:27:45.587Z,7.68
2023-04-26T14:30:33.651Z,6.70
2023-04-26T14:33:23.772Z,5.35
2023-04-26T14:36:13.034Z,8.95
2023-04-26T14:39:01.432Z,7.45
2023-04-26T14:41:49.530Z,4.30
2023-04-26T14:44:39.305Z,5.65
2023-04-26T14:47:27.315Z,5.82
2023-04-26T14:50:15.458Z,5.55
2023-04-26T14:53:03.612Z,6.00
2023-04-26T14:55:56.897Z,5.85
2023-04-26T15:01:34.313Z,6.63
2023-04-26T15:04:23.650Z,6.53
2023-04-26T15:07:20.986Z,6.25
2023-04-26T15:10:19.472Z,6.65
2023-04-26T15:13:07.904Z,5.15
2023-04-26T15:15:56.091Z,8.43
2023-04-26T15:18:46.089Z,5.20
2023-04-26T15:21:34.791Z,6.95
2023-04-26T15:24:23.032Z,5.13
2023-04-26T15:27:11.305Z,6.82
2023-04-26T15:29:59.329Z,7.30
2023-04-26T15:32:51.025Z,10.13
2023-04-26T15:35:40.145Z,8.52
2023-04-26T15:38:28.142Z,6.68
2023-04-26T15:41:16.420Z,7.63
2023-04-26T15:44:04.438Z,8.25
2023-04-26T15:46:52.164Z,8.10
2023-04-26T15:49:39.231Z,7.65
2023-04-26T15:52:28.166Z,6.03
2023-04-26T15:55:15.562Z,6.13
2023-04-26T15:58:02.773Z,5.68
2023-04-26T16:00:50.117Z,6.55
2023-04-26T16:03:37.390Z,6.55
2023-04-26T16:06:24.840Z,5.55
2023-04-26T16:09:24.832Z,6.65
2023-04-26T16:12:13.687Z,6.97
2023-04-26T16:15:01.666Z,5.93
2023-04-26T16:17:48.808Z,5.78
2023-04-26T16:20:36.111Z,6.40
2023-04-26T16:23:23.795Z,6.88
2023-04-26T16:26:12.737Z,6.43
2023-04-26T16:28:59.507Z,4.95
2023-04-26T16:31:46.565Z,8.77
2023-04-26T16:34:34.032Z,7.25
2023-04-26T16:37:21.182Z,5.38
2023-04-26T16:40:09.693Z,11.20
2023-04-26T16:42:58.572Z,6.45
2023-04-26T16:45:46.542Z,6.68
2023-04-26T16:48:35.094Z,7.85
2023-04-26T16:51:22.455Z,5.07
2023-04-26T16:54:10.015Z,8.30
2023-04-26T16:56:57.630Z,6.18
2023-04-26T16:59:47.275Z,8.23
2023-04-26T17:02:34.769Z,5.07
2023-04-26T17:05:22.584Z,7.22
2023-04-26T17:08:10.416Z,5.07
2023-04-26T17:10:57.616Z,6.18
2023-04-26T17:13:45.845Z,7.15
2023-04-26T17:16:34.474Z,6.55
2023-04-26T17:19:21.886Z,4.85
2023-04-26T17:22:09.152Z,8.50
2023-04-26T17:24:56.253Z,5.78
2023-04-26T17:27:43.328Z,6.93
2023-04-26T17:30:30.539Z,7.35
2023-04-26T17:33:19.496Z,6.07
2023-04-26T17:36:07.732Z,5.07
2023-04-26T17:38:54.769Z,5.85
2023-04-26T17:41:42.072Z,6.65
2023-04-26T17:44:29.381Z,6.85
2023-04-26T17:47:16.733Z,5.95
2023-04-26T17:50:05.367Z,5.88
2023-04-26T17:52:52.272Z,6.90
2023-04-26T17:55:39.527Z,9.75
2023-04-26T17:58:27.330Z,6.55
2023-04-26T18:01:14.451Z,9.25
2023-04-26T18:04:01.840Z,6.90
2023-04-26T18:06:51.385Z,6.47
2023-04-26T18:09:38.717Z,9.85
2023-04-26T18:12:26.087Z,7.38
2023-04-26T18:15:13.854Z,6.75
2023-04-26T18:18:01.216Z,6.85
2023-04-26T18:20:48.458Z,8.20
2023-04-26T18:23:37.124Z,8.82
2023-04-26T18:26:24.137Z,6.68
2023-04-26T18:29:11.530Z,8.15
2023-04-26T18:31:58.991Z,6.93
2023-04-26T18:34:46.583Z,8.65
2023-04-26T18:37:33.977Z,6.45
2023-04-26T18:40:22.551Z,6.57
2023-04-26T18:43:09.927Z,7.88
2023-04-26T18:45:57.263Z,8.50
2023-04-26T18:48:45.204Z,10.20
2023-04-26T18:51:32.758Z,6.15
2023-04-26T18:54:19.761Z,7.70
2023-04-26T18:57:10.652Z,9.85
2023-04-26T18:59:59.184Z,8.80
2023-04-26T19:02:46.624Z,9.80
2023-04-26T19:05:34.183Z,9.00
2023-04-26T19:08:21.355Z,7.07
2023-04-26T19:11:09.215Z,6.47
2023-04-26T19:13:57.421Z,8.45
2023-04-26T19:16:44.497Z,6.78
2023-04-26T19:19:32.041Z,7.30
2023-04-26T19:22:19.212Z,8.25
2023-04-26T19:25:06.662Z,6.65
2023-04-26T19:27:53.967Z,6.07
2023-04-26T19:30:42.636Z,7.40
2023-04-26T19:33:29.994Z,8.55
2023-04-26T19:36:17.017Z,9.98
2023-04-26T19:39:04.898Z,9.05
2023-04-26T19:41:52.010Z,6.90
2023-04-26T19:44:41.378Z,7.50
2023-04-26T19:47:30.837Z,7.30
2023-04-26T19:50:18.928Z,9.73
2023-04-26T19:53:06.746Z,8.15
2023-04-26T19:55:55.248Z,9.55
2023-04-26T19:58:43.624Z,8.15
2023-04-26T20:01:31.497Z,16.75
2023-04-26T20:04:21.733Z,7.28
2023-04-26T20:07:10.395Z,11.02
2023-04-26T20:09:58.266Z,6.60
2023-04-26T20:12:46.146Z,9.25
2023-04-26T20:15:34.440Z,9.25
2023-04-26T20:18:22.898Z,12.25
2023-04-26T20:21:12.433Z,10.80
2023-04-26T20:23:59.948Z,10.82
2023-04-26T20:26:47.991Z,10.30
2023-04-26T20:29:36.253Z,10.68
2023-04-26T20:32:24.804Z,10.40
2023-04-26T20:35:14.035Z,8.35
2023-04-26T20:38:03.145Z,11.48
2023-04-26T20:40:50.973Z,9.32
2023-04-26T20:43:38.901Z,9.55
2023-04-26T20:46:26.419Z,12.00
2023-04-26T20:49:13.952Z,11.10
2023-04-26T20:52:01.703Z,11.57
2023-04-26T20:54:51.544Z,7.90
2023-04-26T20:57:40.045Z,12.07
2023-04-26T21:00:27.648Z,9.68
2023-04-26T21:03:15.911Z,9.57
2023-04-26T21:06:04.088Z,9.05
2023-04-26T21:08:52.342Z,9.63
2023-04-26T21:11:41.830Z,12.65
2023-04-26T21:14:29.937Z,9.57
2023-04-26T21:17:17.685Z,13.77
2023-04-26T21:20:05.604Z,9.90
2023-04-26T21:22:53.112Z,12.38
2023-04-26T21:25:45.895Z,9.68
2023-04-26T21:28:35.237Z,11.02
2023-04-26T21:31:24.048Z,15.02
2023-04-26T21:34:12.261Z,13.73
2023-04-26T21:37:00.309Z,12.23
2023-04-26T21:39:48.411Z,11.75
2023-04-26T21:42:35.929Z,12.20
2023-04-26T21:45:25.145Z,11.85
2023-04-26T21:48:12.961Z,10.85
2023-04-26T21:51:01.154Z,12.23
2023-04-26T21:53:48.824Z,14.80
2023-04-26T21:56:36.728Z,10.75
2023-04-26T21:59:24.634Z,10.05
2023-04-26T22:02:14.204Z,10.88
2023-04-26T22:05:02.253Z,11.82
2023-04-26T22:07:52.273Z,12.02
2023-04-26T22:10:39.984Z,11.20
2023-04-26T22:13:34.981Z,14.02
2023-04-26T22:16:23.397Z,13.18
2023-04-26T22:19:12.810Z,12.38
2023-04-26T22:22:03.774Z,11.68
2023-04-26T22:24:52.575Z,11.98
2023-04-26T22:27:42.337Z,12.60
2023-04-26T22:30:31.929Z,11.27
2023-04-26T22:33:19.725Z,11.55
2023-04-26T22:36:09.894Z,11.90
2023-04-26T22:38:59.141Z,11.38
2023-04-26T22:41:46.580Z,9.60
2023-04-26T22:44:33.978Z,13.20
2023-04-26T22:47:23.788Z,12.98
2023-04-26T22:50:11.709Z,14.55
2023-04-26T22:53:02.373Z,11.13
2023-04-26T22:55:52.010Z,10.63
2023-04-26T22:58:40.955Z,10.85
2023-04-26T23:01:28.543Z,18.42
2023-04-26T23:04:18.484Z,9.73
2023-04-26T23:07:11.847Z,13.02
2023-04-26T23:10:00.816Z,11.80
2023-04-26T23:12:51.390Z,9.25
2023-04-26T23:15:39.186Z,12.27
2023-04-26T23:18:27.463Z,13.27
2023-04-26T23:21:15.003Z,8.93
2023-04-26T23:24:02.492Z,10.50
2023-04-26T23:26:51.872Z,10.18
2023-04-26T23:29:39.449Z,14.32
2023-04-26T23:32:29.249Z,13.30
2023-04-26T23:35:16.610Z,9.98
2023-04-26T23:38:03.608Z,11.25
2023-04-26T23:40:50.765Z,9.63
2023-04-26T23:43:39.112Z,10.38
2023-04-26T23:46:26.212Z,12.15
2023-04-26T23:49:13.626Z,11.52
2023-04-26T23:52:00.991Z,10.70
2023-04-26T23:54:47.908Z,9.50
2023-04-26T23:57:35.167Z,15.85
